createdAt,value
2022-09-28T00:00:10.292Z,16.21
2022-09-28T00:02:36.603Z,16.22
2022-09-28T00:05:02.954Z,16.23
2022-09-28T00:07:29.532Z,16.23
2022-09-28T00:09:55.741Z,16.24
2022-09-28T00:12:22.506Z,16.25
2022-09-28T00:14:48.715Z,16.26
2022-09-28T00:17:16.749Z,16.26
2022-09-28T00:19:44.730Z,16.28
2022-09-28T00:22:11.055Z,16.29
2022-09-28T00:24:37.261Z,16.29
2022-09-28T00:27:04.068Z,16.30
2022-09-28T00:29:31.666Z,16.30
2022-09-28T00:32:03.001Z,16.30
2022-09-28T00:34:33.316Z,16.30
2022-09-28T00:37:00.105Z,16.30
2022-09-28T00:39:27.048Z,16.32
2022-09-28T00:41:53.884Z,16.32
2022-09-28T00:44:25.928Z,16.34
2022-09-28T00:47:01.535Z,16.35
2022-09-28T00:49:45.249Z,16.37
2022-09-28T00:52:14.813Z,16.38
2022-09-28T00:54:43.126Z,16.37
2022-09-28T00:57:09.477Z,16.36
2022-09-28T00:59:35.715Z,16.33
2022-09-28T01:02:02.474Z,16.30
2022-09-28T01:04:30.182Z,16.27
2022-09-28T01:06:57.142Z,16.24
2022-09-28T01:09:24.948Z,16.23
2022-09-28T01:11:51.513Z,16.19
2022-09-28T01:14:19.000Z,16.17
2022-09-28T01:16:54.994Z,16.16
2022-09-28T01:19:39.999Z,16.14
2022-09-28T01:22:06.188Z,16.14
2022-09-28T01:24:38.498Z,16.11
2022-09-28T01:27:10.283Z,16.08
2022-09-28T01:29:36.718Z,16.06
2022-09-28T01:32:11.613Z,16.02
2022-09-28T01:34:41.019Z,16.00
2022-09-28T01:37:09.738Z,15.98
2022-09-28T01:39:39.446Z,15.97
2022-09-28T01:42:09.271Z,15.96
2022-09-28T01:44:39.705Z,15.93
2022-09-28T01:47:09.188Z,15.92
2022-09-28T01:49:44.697Z,15.91
2022-09-28T01:52:15.691Z,15.89
2022-09-28T01:54:44.545Z,15.88
2022-09-28T01:57:16.949Z,15.87
2022-09-28T01:59:47.865Z,15.85
2022-09-28T02:02:19.421Z,15.84
2022-09-28T02:04:49.435Z,15.83
2022-09-28T02:07:20.307Z,15.81
2022-09-28T02:09:50.069Z,15.79
2022-09-28T02:12:20.060Z,15.75
2022-09-28T02:14:48.864Z,15.73
2022-09-28T02:17:16.091Z,15.70
2022-09-28T02:19:42.766Z,15.67
2022-09-28T02:22:23.293Z,15.64
2022-09-28T02:24:49.589Z,15.63
2022-09-28T02:27:17.693Z,15.61
2022-09-28T02:29:43.997Z,15.59
2022-09-28T02:32:10.468Z,15.58
2022-09-28T02:34:36.737Z,15.59
2022-09-28T02:37:03.407Z,15.59
2022-09-28T02:39:29.616Z,15.59
2022-09-28T02:41:55.863Z,15.59
2022-09-28T02:44:35.380Z,15.57
2022-09-28T02:47:09.990Z,15.55
2022-09-28T02:49:49.744Z,15.55
2022-09-28T02:52:36.412Z,15.55
2022-09-28T02:55:12.842Z,15.54
2022-09-28T02:57:44.855Z,15.54
2022-09-28T03:00:14.950Z,15.53
2022-09-28T03:02:50.057Z,15.52
2022-09-28T03:05:29.990Z,15.52
2022-09-28T03:08:03.909Z,15.51
2022-09-28T03:10:33.458Z,15.49
2022-09-28T03:13:00.534Z,15.49
2022-09-28T03:15:28.729Z,15.48
2022-09-28T03:17:55.705Z,15.49
2022-09-28T03:20:21.904Z,15.48
2022-09-28T03:23:05.949Z,15.47
2022-09-28T03:25:34.318Z,15.48
2022-09-28T03:28:00.615Z,15.48
2022-09-28T03:30:26.858Z,15.48
2022-09-28T03:33:00.146Z,15.49
2022-09-28T03:35:26.632Z,15.49
2022-09-28T03:37:55.993Z,15.49
2022-09-28T03:40:22.405Z,15.48
2022-09-28T03:42:48.746Z,15.48
2022-09-28T03:45:15.004Z,15.47
2022-09-28T03:47:45.073Z,15.48
2022-09-28T03:50:11.289Z,15.49
2022-09-28T03:52:37.486Z,15.50
2022-09-28T03:55:03.807Z,15.53
2022-09-28T03:57:30.013Z,15.55
2022-09-28T03:59:56.207Z,15.57
2022-09-28T04:02:22.454Z,15.60
2022-09-28T04:04:48.700Z,15.60
2022-09-28T04:07:14.952Z,15.58
2022-09-28T04:09:41.477Z,15.58
2022-09-28T04:12:07.682Z,15.57
2022-09-28T04:14:33.896Z,15.57
2022-09-28T04:17:00.115Z,15.55
2022-09-28T04:19:26.792Z,15.55
2022-09-28T04:21:53.006Z,15.55
2022-09-28T04:24:20.213Z,15.56
2022-09-28T04:26:46.412Z,15.55
2022-09-28T04:29:15.902Z,15.54
2022-09-28T04:31:46.697Z,15.56
2022-09-28T04:34:14.808Z,15.53
2022-09-28T04:36:41.002Z,15.52
2022-09-28T04:39:07.261Z,15.53
2022-09-28T04:41:33.461Z,15.52
2022-09-28T04:43:59.847Z,15.52
2022-09-28T04:46:26.201Z,15.50
2022-09-28T04:48:52.385Z,15.48
2022-09-28T04:51:18.634Z,15.45
2022-09-28T04:53:44.874Z,15.42
2022-09-28T04:56:12.526Z,15.38
2022-09-28T04:58:39.514Z,15.36
2022-09-28T05:01:07.133Z,15.34
2022-09-28T05:03:34.085Z,15.34
2022-09-28T05:06:01.058Z,15.34
2022-09-28T05:08:27.546Z,15.36
2022-09-28T05:11:01.294Z,15.36
2022-09-28T05:13:28.020Z,15.37
2022-09-28T05:15:58.188Z,15.38
2022-09-28T05:18:27.236Z,15.38
2022-09-28T05:20:53.494Z,15.38
2022-09-28T05:23:19.747Z,15.38
2022-09-28T05:25:45.990Z,15.38
2022-09-28T05:28:12.318Z,15.38
2022-09-28T05:30:38.606Z,15.36
2022-09-28T05:33:04.973Z,15.37
2022-09-28T05:35:31.558Z,15.37
2022-09-28T05:38:02.177Z,15.37
2022-09-28T05:40:28.423Z,15.39
2022-09-28T05:42:58.513Z,15.38
2022-09-28T05:45:24.724Z,15.38
2022-09-28T05:47:50.938Z,15.38
2022-09-28T05:50:17.220Z,15.37
2022-09-28T05:52:44.269Z,15.37
2022-09-28T05:55:10.651Z,15.36
2022-09-28T05:57:36.961Z,15.35
2022-09-28T06:00:04.544Z,15.35
2022-09-28T06:02:30.787Z,15.35
2022-09-28T06:04:57.044Z,15.34
2022-09-28T06:07:23.761Z,15.35
2022-09-28T06:09:49.998Z,15.34
2022-09-28T06:12:16.402Z,15.36
2022-09-28T06:14:42.617Z,15.37
2022-09-28T06:17:08.940Z,15.38
2022-09-28T06:19:35.181Z,15.37
2022-09-28T06:22:01.389Z,15.39
2022-09-28T06:24:28.049Z,15.38
2022-09-28T06:26:54.306Z,15.42
2022-09-28T06:29:20.563Z,15.43
2022-09-28T06:31:47.142Z,15.42
2022-09-28T06:34:13.652Z,15.42
2022-09-28T06:36:40.288Z,15.45
2022-09-28T06:39:06.855Z,15.47
2022-09-28T06:41:33.198Z,15.49
2022-09-28T06:43:59.530Z,15.52
2022-09-28T06:46:25.908Z,15.55
2022-09-28T06:48:52.432Z,15.58
2022-09-28T06:51:18.673Z,15.62
2022-09-28T06:53:44.868Z,15.63
2022-09-28T06:56:11.513Z,15.66
2022-09-28T06:58:37.786Z,15.68
2022-09-28T07:01:04.394Z,15.72
2022-09-28T07:03:30.700Z,15.73
2022-09-28T07:05:56.938Z,15.76
2022-09-28T07:08:28.599Z,15.78
2022-09-28T07:10:57.952Z,15.82
2022-09-28T07:13:46.364Z,15.85
2022-09-28T07:16:12.685Z,15.88
2022-09-28T07:18:39.024Z,15.93
2022-09-28T07:21:08.078Z,15.95
2022-09-28T07:23:47.873Z,16.00
2022-09-28T07:26:21.971Z,16.05
2022-09-28T07:28:49.652Z,16.12
2022-09-28T07:31:16.009Z,16.21
2022-09-28T07:33:42.316Z,16.28
2022-09-28T07:36:08.715Z,16.38
2022-09-28T07:38:35.060Z,16.45
2022-09-28T07:41:14.672Z,16.49
2022-09-28T07:43:41.446Z,16.52
2022-09-28T07:46:10.870Z,16.50
2022-09-28T07:48:39.032Z,16.49
2022-09-28T07:51:05.334Z,16.47
2022-09-28T07:53:31.738Z,16.44
2022-09-28T07:56:09.289Z,16.41
2022-09-28T07:58:36.940Z,16.41
2022-09-28T08:01:04.915Z,16.41
2022-09-28T08:03:31.206Z,16.44
2022-09-28T08:06:02.085Z,16.47
2022-09-28T08:08:29.959Z,16.50
2022-09-28T08:10:57.130Z,16.52
2022-09-28T08:13:27.064Z,16.52
2022-09-28T08:15:53.618Z,16.53
2022-09-28T08:18:20.475Z,16.55
2022-09-28T08:21:05.615Z,16.57
2022-09-28T08:23:31.932Z,16.60
2022-09-28T08:25:58.304Z,16.62
2022-09-28T08:28:24.774Z,16.67
2022-09-28T08:30:51.309Z,16.70
2022-09-28T08:33:20.206Z,16.73
2022-09-28T08:35:46.698Z,16.79
2022-09-28T08:38:13.634Z,16.84
2022-09-28T08:40:58.780Z,16.87
2022-09-28T08:43:31.164Z,16.91
2022-09-28T08:45:59.017Z,16.93
2022-09-28T08:49:01.112Z,16.97
2022-09-28T08:51:55.039Z,17.01
2022-09-28T08:54:35.590Z,17.04
2022-09-28T08:57:05.555Z,17.07
2022-09-28T08:59:40.210Z,17.09
2022-09-28T09:02:16.893Z,17.10
2022-09-28T09:04:43.296Z,17.11
2022-09-28T09:07:22.431Z,17.13
2022-09-28T09:10:07.227Z,17.15
2022-09-28T09:15:38.810Z,17.13
2022-09-28T09:18:07.818Z,17.11
2022-09-28T09:20:34.014Z,17.09
2022-09-28T09:23:12.378Z,17.07
2022-09-28T09:25:38.764Z,17.02
2022-09-28T09:28:14.125Z,17.01
2022-09-28T09:30:57.126Z,16.97
2022-09-28T09:33:46.730Z,16.94
2022-09-28T09:36:28.574Z,16.93
2022-09-28T09:39:13.449Z,16.94
2022-09-28T09:41:46.601Z,16.96
2022-09-28T09:44:12.821Z,17.00
2022-09-28T09:46:47.606Z,17.02
2022-09-28T09:49:13.792Z,17.05
2022-09-28T09:51:44.824Z,17.07
2022-09-28T09:54:30.089Z,17.10
2022-09-28T09:57:05.698Z,17.11
2022-09-28T09:59:37.688Z,17.12
2022-09-28T10:02:13.277Z,17.15
2022-09-28T10:04:41.488Z,17.15
2022-09-28T10:07:09.598Z,17.15
2022-09-28T10:09:45.632Z,17.16
2022-09-28T10:12:15.814Z,17.17
2022-09-28T10:14:42.439Z,17.21
2022-09-28T10:17:11.999Z,17.23
2022-09-28T10:19:38.202Z,17.26
2022-09-28T10:22:05.708Z,17.32
2022-09-28T10:24:36.561Z,17.38
2022-09-28T10:27:07.947Z,17.46
2022-09-28T10:29:41.170Z,17.54
2022-09-28T10:32:17.902Z,17.62
2022-09-28T10:34:48.732Z,17.70
2022-09-28T10:37:17.993Z,17.79
2022-09-28T10:39:53.138Z,17.85
2022-09-28T10:42:37.264Z,17.93
2022-09-28T10:45:19.897Z,17.95
2022-09-28T10:47:46.303Z,17.98
2022-09-28T10:50:30.868Z,17.98
2022-09-28T10:53:17.748Z,18.01
2022-09-28T10:55:55.788Z,18.02
2022-09-28T10:58:26.909Z,18.06
2022-09-28T11:00:59.657Z,18.07
2022-09-28T11:03:27.140Z,18.09
2022-09-28T11:05:57.756Z,18.08
2022-09-28T11:08:29.395Z,18.08
2022-09-28T11:11:11.960Z,18.07
2022-09-28T11:13:42.871Z,18.06
2022-09-28T11:16:18.815Z,18.04
2022-09-28T11:18:45.106Z,18.04
2022-09-28T11:21:15.971Z,18.02
2022-09-28T11:23:54.580Z,17.98
2022-09-28T11:26:21.660Z,17.93
2022-09-28T11:28:51.430Z,17.89
2022-09-28T11:31:24.781Z,17.86
2022-09-28T11:33:51.017Z,17.84
2022-09-28T11:36:29.651Z,17.86
2022-09-28T11:38:55.884Z,17.88
2022-09-28T11:41:22.049Z,17.88
2022-09-28T11:43:48.242Z,17.92
2022-09-28T11:46:19.094Z,17.94
2022-09-28T11:48:47.433Z,18.00
2022-09-28T11:51:20.242Z,18.05
2022-09-28T11:53:53.355Z,18.11
2022-09-28T11:56:37.616Z,18.17
2022-09-28T11:59:20.409Z,18.21
2022-09-28T12:01:46.599Z,18.26
2022-09-28T12:04:19.719Z,18.31
2022-09-28T12:07:01.361Z,18.36
2022-09-28T12:09:32.725Z,18.44
2022-09-28T12:12:02.302Z,18.52
2022-09-28T12:14:30.874Z,18.58
2022-09-28T12:17:07.731Z,18.66
2022-09-28T12:19:41.091Z,18.74
2022-09-28T12:22:15.799Z,18.83
2022-09-28T12:24:54.309Z,18.91
2022-09-28T12:27:23.656Z,18.97
2022-09-28T12:30:12.975Z,19.05
2022-09-28T12:32:39.276Z,19.12
2022-09-28T12:35:19.666Z,19.18
2022-09-28T12:37:52.660Z,19.26
2022-09-28T12:40:31.715Z,19.34
2022-09-28T12:42:58.058Z,19.41
2022-09-28T12:45:42.966Z,19.49
2022-09-28T12:48:38.151Z,19.56
2022-09-28T12:51:14.956Z,19.62
2022-09-28T12:54:13.836Z,19.62
2022-09-28T12:56:57.781Z,19.63
2022-09-28T12:59:29.080Z,19.66
2022-09-28T13:01:58.400Z,19.68
2022-09-28T13:04:32.478Z,19.71
2022-09-28T13:06:58.701Z,19.72
2022-09-28T13:09:26.065Z,19.70
2022-09-28T13:11:55.463Z,19.71
2022-09-28T13:14:37.679Z,19.72
2022-09-28T13:17:22.979Z,19.72
2022-09-28T13:19:58.467Z,19.71
2022-09-28T13:22:30.150Z,19.74
2022-09-28T13:24:59.352Z,19.76
2022-09-28T13:27:36.967Z,19.80
2022-09-28T13:30:06.573Z,19.82
2022-09-28T13:32:33.774Z,19.86
2022-09-28T13:35:02.106Z,19.88
2022-09-28T13:37:29.004Z,19.89
2022-09-28T13:39:56.768Z,19.92
2022-09-28T13:42:39.938Z,19.95
2022-09-28T13:45:24.856Z,19.96
2022-09-28T13:47:51.512Z,19.96
2022-09-28T13:50:23.473Z,19.96
2022-09-28T13:52:56.424Z,19.96
2022-09-28T13:55:23.168Z,19.99
2022-09-28T13:57:52.222Z,19.97
2022-09-28T14:00:23.646Z,19.98
2022-09-28T14:02:55.945Z,19.96
2022-09-28T14:05:51.474Z,19.95
2022-09-28T14:08:23.856Z,19.90
2022-09-28T14:10:51.723Z,19.89
2022-09-28T14:13:36.812Z,19.88
2022-09-28T14:16:18.413Z,19.89
2022-09-28T14:18:48.383Z,19.91
2022-09-28T14:21:33.374Z,19.92
2022-09-28T14:24:13.645Z,19.94
2022-09-28T14:26:58.705Z,19.97
2022-09-28T14:29:28.919Z,19.99
2022-09-28T14:31:56.828Z,20.05
2022-09-28T14:34:34.189Z,20.08
2022-09-28T14:37:20.984Z,20.13
2022-09-28T14:40:06.150Z,20.15
2022-09-28T14:42:32.540Z,20.18
2022-09-28T14:45:05.409Z,20.19
2022-09-28T14:47:33.738Z,20.21
2022-09-28T14:50:01.258Z,20.21
2022-09-28T14:52:46.217Z,20.21
2022-09-28T14:55:17.241Z,20.20
2022-09-28T14:57:43.610Z,20.20
2022-09-28T15:00:20.241Z,20.21
2022-09-28T15:02:48.779Z,20.21
2022-09-28T15:05:21.447Z,20.22
2022-09-28T15:07:52.320Z,20.21
2022-09-28T15:10:32.878Z,20.19
2022-09-28T15:13:20.682Z,20.17
2022-09-28T15:15:50.304Z,20.16
2022-09-28T15:18:35.417Z,20.15
2022-09-28T15:21:01.914Z,20.14
2022-09-28T15:23:41.650Z,20.15
2022-09-28T15:26:19.678Z,20.13
2022-09-28T15:28:46.012Z,20.12
2022-09-28T15:31:18.245Z,20.10
2022-09-28T15:34:03.165Z,20.09
2022-09-28T15:36:30.582Z,20.07
2022-09-28T15:41:26.504Z,19.99
2022-09-28T15:44:11.132Z,19.94
2022-09-28T15:46:39.412Z,19.89
2022-09-28T15:49:06.204Z,19.84
2022-09-28T15:51:44.732Z,19.80
2022-09-28T15:54:11.029Z,19.76
2022-09-28T15:56:59.547Z,19.74
2022-09-28T15:59:29.353Z,19.70
2022-09-28T16:02:25.860Z,19.66
2022-09-28T16:04:55.309Z,19.62
2022-09-28T16:07:33.992Z,19.60
2022-09-28T16:10:04.585Z,19.57
2022-09-28T16:12:40.123Z,19.55
2022-09-28T16:15:14.781Z,19.51
2022-09-28T16:17:41.598Z,19.48
2022-09-28T16:20:37.731Z,19.45
2022-09-28T16:23:30.468Z,19.40
2022-09-28T16:25:58.951Z,19.37
2022-09-28T16:28:26.459Z,19.32
2022-09-28T16:31:00.532Z,19.31
2022-09-28T16:33:28.309Z,19.26
2022-09-28T16:35:54.568Z,19.22
2022-09-28T16:38:20.956Z,19.19
2022-09-28T16:40:52.662Z,19.16
2022-09-28T16:43:26.597Z,19.12
2022-09-28T16:45:57.914Z,19.06
2022-09-28T16:48:26.675Z,19.02
2022-09-28T16:50:52.886Z,18.99
2022-09-28T16:53:37.821Z,18.95
2022-09-28T16:56:04.632Z,18.90
2022-09-28T16:58:31.810Z,18.88
2022-09-28T17:00:58.408Z,18.84
2022-09-28T17:03:24.972Z,18.81
2022-09-28T17:05:51.581Z,18.79
2022-09-28T17:08:19.212Z,18.74
2022-09-28T17:13:39.249Z,18.66
2022-09-28T17:16:11.856Z,18.63
2022-09-28T17:18:39.953Z,18.61
2022-09-28T17:21:09.647Z,18.58
2022-09-28T17:23:35.885Z,18.55
2022-09-28T17:26:02.652Z,18.53
2022-09-28T17:28:31.261Z,18.50
2022-09-28T17:30:57.686Z,18.46
2022-09-28T17:33:24.249Z,18.43
2022-09-28T17:35:57.559Z,18.41
2022-09-28T17:38:23.979Z,18.40
2022-09-28T17:40:50.306Z,18.38
2022-09-28T17:43:16.641Z,18.37
2022-09-28T17:45:44.696Z,18.37
2022-09-28T17:48:12.898Z,18.37
2022-09-28T17:50:42.150Z,18.38
2022-09-28T17:53:11.039Z,18.37
2022-09-28T17:55:37.875Z,18.36
2022-09-28T17:58:16.678Z,18.37
2022-09-28T18:00:43.643Z,18.36
2022-09-28T18:03:14.245Z,18.35
2022-09-28T18:05:40.738Z,18.34
2022-09-28T18:08:06.965Z,18.31
2022-09-28T18:10:33.755Z,18.29
2022-09-28T18:12:59.956Z,18.27
2022-09-28T18:15:26.215Z,18.26
2022-09-28T18:17:52.449Z,18.23
2022-09-28T18:20:18.678Z,18.20
2022-09-28T18:22:44.910Z,18.19
2022-09-28T18:25:11.133Z,18.17
2022-09-28T18:27:37.442Z,18.15
2022-09-28T18:30:04.503Z,18.12
2022-09-28T18:32:30.798Z,18.09
2022-09-28T18:34:57.014Z,18.04
2022-09-28T18:37:23.293Z,18.01
2022-09-28T18:39:49.534Z,17.97
2022-09-28T18:42:15.864Z,17.93
2022-09-28T18:44:42.112Z,17.91
2022-09-28T18:47:08.325Z,17.89
2022-09-28T18:49:34.598Z,17.85
2022-09-28T18:52:01.388Z,17.83
2022-09-28T18:54:27.830Z,17.79
2022-09-28T18:56:56.145Z,17.78
2022-09-28T18:59:23.249Z,17.73
2022-09-28T19:01:49.650Z,17.69
2022-09-28T19:04:16.188Z,17.67
2022-09-28T19:06:44.276Z,17.64
2022-09-28T19:09:10.901Z,17.60
2022-09-28T19:11:37.106Z,17.56
2022-09-28T19:14:06.423Z,17.52
2022-09-28T19:16:33.989Z,17.48
2022-09-28T19:19:02.529Z,17.46
2022-09-28T19:21:29.190Z,17.42
2022-09-28T19:23:55.802Z,17.38
2022-09-28T19:26:23.381Z,17.34
2022-09-28T19:28:49.657Z,17.32
2022-09-28T19:31:16.584Z,17.28
2022-09-28T19:33:45.224Z,17.27
2022-09-28T19:36:12.578Z,17.24
2022-09-28T19:38:39.641Z,17.23
2022-09-28T19:41:09.573Z,17.19
2022-09-28T19:43:36.179Z,17.16
2022-09-28T19:46:04.310Z,17.14
2022-09-28T19:48:31.520Z,17.11
2022-09-28T19:50:59.001Z,17.07
2022-09-28T19:53:26.085Z,17.05
2022-09-28T19:55:53.781Z,17.02
2022-09-28T19:58:24.553Z,17.01
2022-09-28T20:00:51.152Z,16.99
2022-09-28T20:03:18.467Z,16.98
2022-09-28T20:05:45.377Z,16.97
2022-09-28T20:08:12.428Z,16.95
2022-09-28T20:10:39.117Z,16.94
2022-09-28T20:13:05.314Z,16.93
2022-09-28T20:15:31.600Z,16.92
2022-09-28T20:17:58.618Z,16.92
2022-09-28T20:20:28.533Z,16.92
2022-09-28T20:22:55.025Z,16.92
2022-09-28T20:25:21.297Z,16.91
2022-09-28T20:27:47.531Z,16.91
2022-09-28T20:30:13.859Z,16.91
2022-09-28T20:32:40.055Z,16.91
2022-09-28T20:35:06.649Z,16.92
2022-09-28T20:37:33.392Z,16.92
2022-09-28T20:40:01.439Z,16.92
2022-09-28T20:42:27.684Z,16.91
2022-09-28T20:44:53.908Z,16.91
2022-09-28T20:47:20.111Z,16.89
2022-09-28T20:49:46.370Z,16.89
2022-09-28T20:52:12.571Z,16.88
2022-09-28T20:54:38.773Z,16.88
2022-09-28T20:57:17.148Z,16.86
2022-09-28T20:59:44.280Z,16.84
2022-09-28T21:02:14.998Z,16.82
2022-09-28T21:04:41.499Z,16.79
2022-09-28T21:07:08.533Z,16.77
2022-09-28T21:09:35.080Z,16.75
2022-09-28T21:12:01.783Z,16.73
2022-09-28T21:14:28.000Z,16.70
2022-09-28T21:16:54.204Z,16.69
2022-09-28T21:19:24.167Z,16.67
2022-09-28T21:21:50.709Z,16.63
2022-09-28T21:24:16.986Z,16.61
2022-09-28T21:26:43.218Z,16.59
2022-09-28T21:29:13.684Z,16.57
2022-09-28T21:31:45.590Z,16.53
2022-09-28T21:34:13.261Z,16.51
2022-09-28T21:36:39.805Z,16.49
2022-09-28T21:39:09.622Z,16.48
2022-09-28T21:41:36.666Z,16.47
2022-09-28T21:44:02.945Z,16.47
2022-09-28T21:46:33.980Z,16.45
2022-09-28T21:49:01.373Z,16.45
2022-09-28T21:51:28.029Z,16.47
2022-09-28T21:53:54.234Z,16.47
2022-09-28T21:56:20.938Z,16.48
2022-09-28T21:58:47.253Z,16.51
2022-09-28T22:01:15.350Z,16.52
2022-09-28T22:03:42.499Z,16.54
2022-09-28T22:06:09.301Z,16.57
2022-09-28T22:08:36.144Z,16.58
2022-09-28T22:11:05.863Z,16.59
2022-09-28T22:13:36.375Z,16.60
2022-09-28T22:16:03.170Z,16.61
2022-09-28T22:18:30.508Z,16.62
2022-09-28T22:21:10.874Z,16.63
2022-09-28T22:23:37.827Z,16.63
2022-09-28T22:26:06.936Z,16.65
2022-09-28T22:28:33.665Z,16.65
2022-09-28T22:31:00.034Z,16.66
2022-09-28T22:33:26.769Z,16.66
2022-09-28T22:35:53.395Z,16.68
2022-09-28T22:38:20.513Z,16.67
2022-09-28T22:40:56.960Z,16.66
2022-09-28T22:43:23.745Z,16.65
2022-09-28T22:45:50.146Z,16.62
2022-09-28T22:48:16.426Z,16.60
2022-09-28T22:50:50.177Z,16.57
2022-09-28T22:53:16.435Z,16.52
2022-09-28T22:55:42.663Z,16.48
2022-09-28T22:58:08.907Z,16.42
2022-09-28T23:00:35.318Z,16.37
2022-09-28T23:03:01.796Z,16.33
2022-09-28T23:05:28.061Z,16.27
2022-09-28T23:07:54.293Z,16.22
2022-09-28T23:10:20.621Z,16.17
2022-09-28T23:12:46.842Z,16.13
2022-09-28T23:15:13.651Z,16.09
2022-09-28T23:17:39.864Z,16.05
2022-09-28T23:20:06.266Z,16.01
2022-09-28T23:22:32.475Z,15.98
2022-09-28T23:24:58.701Z,15.92
2022-09-28T23:27:24.944Z,15.88
2022-09-28T23:29:53.706Z,15.85
2022-09-28T23:32:20.073Z,15.80
2022-09-28T23:34:46.513Z,15.75
2022-09-28T23:37:12.732Z,15.70
2022-09-28T23:39:39.001Z,15.66
2022-09-28T23:42:05.581Z,15.62
2022-09-28T23:44:32.615Z,15.56
2022-09-28T23:46:58.853Z,15.52
2022-09-28T23:49:25.058Z,15.47
2022-09-28T23:51:51.286Z,15.41
2022-09-28T23:54:18.097Z,15.36
2022-09-28T23:56:44.303Z,15.32
2022-09-28T23:59:10.541Z,15.28
